Time;durP1;ratioP1;P1;durP2;ratioP2;P2;SDS_P1;SDS_P2;PMS_P1;PMS_P2;Temp;Humidity;BMP_temperature;BMP_pressure;BME280_temperature;BME280_humidity;BME280_pressure;Samples;Min_cycle;Max_cycle;Signal;HPM_P1;HPM_P2
2022/04/10 00:00:18;;;;;;;11.27;2.50;;;;;;;;;;5070910;28;20041;-79
2022/04/10 00:02:44;;;;;;;15.85;2.65;;;;;;;;;;5037653;28;20127;-79
2022/04/10 00:05:11;;;;;;;13.23;2.42;;;;;;;;;;5070446;28;20047;-79
2022/04/10 00:07:37;;;;;;;15.60;2.10;;;;;;;;;;5070886;28;20499;-79
2022/04/10 00:10:04;;;;;;;12.10;3.08;;;;;;;;;;5054335;28;20115;-79
2022/04/10 00:12:30;;;;;;;10.90;2.10;;;;;;;;;;5070307;28;20029;-79
2022/04/10 00:14:56;;;;;;;14.95;2.67;;;;;;;;;;5070508;28;20032;-79
2022/04/10 00:17:22;;;;;;;13.45;2.22;;;;;;;;;;5053797;28;20033;-79
2022/04/10 00:19:48;;;;;;;14.10;2.00;;;;;;;;;;5070571;28;20040;-79
2022/04/10 00:22:14;;;;;;;11.20;2.15;;;;;;;;;;5070313;28;20171;-79
2022/04/10 00:24:40;;;;;;;18.58;2.95;;;;;;;;;;5070456;28;20043;-79
2022/04/10 00:27:07;;;;;;;13.52;2.90;;;;;;;;;;5071542;28;20040;-79
2022/04/10 00:29:33;;;;;;;15.82;2.20;;;;;;;;;;5070236;28;20060;-79
2022/04/10 00:31:59;;;;;;;15.30;2.33;;;;;;;;;;5053779;28;20079;-78
2022/04/10 00:34:25;;;;;;;9.68;2.08;;;;;;;;;;5055507;28;20044;-78
2022/04/10 00:36:51;;;;;;;17.35;2.42;;;;;;;;;;5072093;28;20123;-79
2022/04/10 00:39:18;;;;;;;10.07;2.25;;;;;;;;;;5037652;28;20078;-79
2022/04/10 00:41:44;;;;;;;13.10;2.20;;;;;;;;;;5071225;28;20040;-78
2022/04/10 00:44:11;;;;;;;14.10;2.10;;;;;;;;;;5053461;28;20127;-78
2022/04/10 00:46:38;;;;;;;20.15;2.70;;;;;;;;;;5070414;28;20104;-79
2022/04/10 00:49:04;;;;;;;10.80;2.08;;;;;;;;;;5070155;28;20048;-79
2022/04/10 00:51:40;;;;;;;14.40;2.38;;;;;;;;;;5069646;28;20036;-79
2022/04/10 00:54:06;;;;;;;;;;;;;;;;;;5070664;28;20032;-77
2022/04/10 00:56:32;;;;;;;9.95;1.55;;;;;;;;;;5069954;28;19920;-79
2022/04/10 00:58:58;;;;;;;11.40;2.28;;;;;;;;;;5070197;28;20084;-79
2022/04/10 01:01:24;;;;;;;12.88;2.30;;;;;;;;;;5069837;28;20446;-79
2022/04/10 01:03:51;;;;;;;15.93;1.90;;;;;;;;;;5053317;28;20106;-79
2022/04/10 01:06:17;;;;;;;12.82;2.40;;;;;;;;;;5069308;28;20042;-79
2022/04/10 01:08:43;;;;;;;11.75;3.08;;;;;;;;;;5069038;28;20048;-79
2022/04/10 01:11:09;;;;;;;7.55;2.22;;;;;;;;;;5069706;28;20174;-78
2022/04/10 01:13:35;;;;;;;11.07;2.10;;;;;;;;;;5069655;28;20052;-79
2022/04/10 01:16:01;;;;;;;14.93;2.35;;;;;;;;;;5068811;28;20036;-79
2022/04/10 01:18:28;;;;;;;11.20;1.98;;;;;;;;;;5070602;28;20055;-79
2022/04/10 01:21:12;;;;;;;15.90;2.50;;;;;;;;;;5069901;28;20048;-79
2022/04/10 01:23:39;;;;;;;10.48;2.03;;;;;;;;;;5069646;28;20049;-79
2022/04/10 01:26:05;;;;;;;10.70;2.03;;;;;;;;;;5069513;28;20044;-78
2022/04/10 01:28:31;;;;;;;9.30;2.20;;;;;;;;;;5068149;28;20542;-79
2022/04/10 01:30:57;;;;;;;19.50;2.25;;;;;;;;;;5052916;28;20388;-79
2022/04/10 01:33:23;;;;;;;13.85;2.00;;;;;;;;;;5069326;28;20435;-79
2022/04/10 01:35:50;;;;;;;14.45;2.30;;;;;;;;;;5069376;28;20049;-79
2022/04/10 01:38:16;;;;;;;13.85;2.15;;;;;;;;;;5069362;28;20044;-79
2022/04/10 01:40:42;;;;;;;9.85;1.92;;;;;;;;;;5052784;28;20047;-79
2022/04/10 01:43:08;;;;;;;11.30;1.83;;;;;;;;;;5052549;28;20056;-78
2022/04/10 01:45:35;;;;;;;9.23;2.10;;;;;;;;;;5070336;28;20120;-79
2022/04/10 01:48:01;;;;;;;10.27;2.15;;;;;;;;;;5052633;28;20080;-79
2022/04/10 01:50:27;;;;;;;13.45;2.35;;;;;;;;;;5068452;28;20451;-76
2022/04/10 01:52:53;;;;;;;10.85;3.10;;;;;;;;;;5068470;28;20033;-74
2022/04/10 01:55:19;;;;;;;17.02;1.80;;;;;;;;;;5051490;28;20039;-78
2022/04/10 01:57:46;;;;;;;11.85;2.38;;;;;;;;;;5068838;28;20079;-79
2022/04/10 02:00:12;;;;;;;14.48;1.85;;;;;;;;;;5068769;28;20052;-75
2022/04/10 02:02:38;;;;;;;8.93;2.20;;;;;;;;;;5062093;28;20040;-76
2022/04/10 02:05:04;;;;;;;11.55;2.10;;;;;;;;;;5065910;28;20094;-74
2022/04/10 02:07:30;;;;;;;12.80;1.77;;;;;;;;;;5050854;28;22006;-75
2022/04/10 02:09:56;;;;;;;11.95;2.28;;;;;;;;;;5051788;28;20388;-79
2022/04/10 02:12:22;;;;;;;13.88;2.17;;;;;;;;;;5052155;28;20268;-79
2022/04/10 02:14:48;;;;;;;10.95;2.95;;;;;;;;;;5052695;28;20303;-79
2022/04/10 02:17:14;;;;;;;9.13;1.83;;;;;;;;;;5052474;28;20036;-79
2022/04/10 02:19:41;;;;;;;14.88;2.22;;;;;;;;;;5053742;28;20044;-74
2022/04/10 02:22:07;;;;;;;12.73;2.33;;;;;;;;;;5071856;28;20048;-74
2022/04/10 02:24:33;;;;;;;9.57;2.28;;;;;;;;;;5054888;28;20040;-74
2022/04/10 02:26:59;;;;;;;14.77;2.40;;;;;;;;;;5072785;28;20417;-79
2022/04/10 02:29:25;;;;;;;13.20;2.25;;;;;;;;;;5072249;28;20431;-78
2022/04/10 02:31:51;;;;;;;11.27;2.10;;;;;;;;;;5072704;28;20041;-79
2022/04/10 02:34:17;;;;;;;14.32;2.30;;;;;;;;;;5055817;28;20056;-79
2022/04/10 02:36:43;;;;;;;10.73;2.10;;;;;;;;;;5072400;28;20043;-79
2022/04/10 02:39:09;;;;;;;14.35;1.85;;;;;;;;;;5072679;28;20037;-79
2022/04/10 02:41:35;;;;;;;11.18;2.35;;;;;;;;;;5056111;28;20041;-79
2022/04/10 02:44:01;;;;;;;7.65;2.03;;;;;;;;;;5072594;28;20048;-79
2022/04/10 02:46:27;;;;;;;10.25;1.80;;;;;;;;;;5055708;28;20067;-79
2022/04/10 02:48:53;;;;;;;15.27;2.10;;;;;;;;;;5072324;28;20040;-79
2022/04/10 02:51:19;;;;;;;9.48;2.17;;;;;;;;;;5055810;28;20483;-79
2022/04/10 02:53:46;;;;;;;13.77;2.05;;;;;;;;;;5072177;28;20044;-79
2022/04/10 02:56:12;;;;;;;9.85;1.98;;;;;;;;;;5055124;28;20133;-78
2022/04/10 02:58:38;;;;;;;5.93;1.90;;;;;;;;;;5071955;28;20043;-78
2022/04/10 03:01:04;;;;;;;14.60;1.85;;;;;;;;;;5071918;28;20048;-78
2022/04/10 03:03:30;;;;;;;12.35;2.08;;;;;;;;;;5055130;28;20044;-79
2022/04/10 03:05:56;;;;;;;15.15;1.85;;;;;;;;;;5071948;28;20048;-79
2022/04/10 03:08:22;;;;;;;11.93;2.33;;;;;;;;;;5055077;28;20051;-79
2022/04/10 03:10:48;;;;;;;11.88;2.17;;;;;;;;;;5055637;28;20040;-79
2022/04/10 03:13:15;;;;;;;11.75;1.98;;;;;;;;;;5054690;28;20116;-79
2022/04/10 03:15:42;;;;;;;13.55;2.17;;;;;;;;;;5054970;28;20040;-79
2022/04/10 03:18:08;;;;;;;13.75;2.05;;;;;;;;;;5072031;28;20055;-79
2022/04/10 03:20:34;;;;;;;9.77;2.00;;;;;;;;;;5071846;28;20388;-79
2022/04/10 03:23:00;;;;;;;11.43;1.98;;;;;;;;;;5071674;28;20038;-78
2022/04/10 03:25:26;;;;;;;12.48;1.85;;;;;;;;;;5071653;28;20111;-78
2022/04/10 03:27:52;;;;;;;14.73;2.35;;;;;;;;;;5072056;28;20496;-79
2022/04/10 03:30:18;;;;;;;10.98;2.25;;;;;;;;;;5070047;28;20029;-79
2022/04/10 03:32:44;;;;;;;12.50;2.17;;;;;;;;;;5054816;28;20044;-76
2022/04/10 03:35:10;;;;;;;11.90;2.10;;;;;;;;;;5071134;28;20036;-78
2022/04/10 03:37:36;;;;;;;6.82;1.45;;;;;;;;;;5070651;28;20093;-76
2022/04/10 03:40:04;;;;;;;8.15;2.45;;;;;;;;;;5054473;28;20040;-78
2022/04/10 03:42:37;;;;;;;9.60;2.15;;;;;;;;;;5070322;28;20036;-77
2022/04/10 03:45:04;;;;;;;6.70;1.58;;;;;;;;;;5066377;28;20454;-78
2022/04/10 03:47:30;;;;;;;7.22;1.50;;;;;;;;;;5054045;28;20103;-78
2022/04/10 03:49:57;;;;;;;10.60;2.20;;;;;;;;;;5071371;28;20539;-78
2022/04/10 03:52:23;;;;;;;8.18;1.58;;;;;;;;;;5070485;28;20035;-79
2022/04/10 03:54:49;;;;;;;9.45;1.95;;;;;;;;;;5071083;28;20032;-78
2022/04/10 03:57:15;;;;;;;10.60;1.60;;;;;;;;;;5071825;28;20036;-79
2022/04/10 03:59:41;;;;;;;7.30;1.90;;;;;;;;;;5068422;28;20549;-78
2022/04/10 04:02:07;;;;;;;10.95;1.80;;;;;;;;;;5051151;28;20045;-79
2022/04/10 04:04:36;;;;;;;5.70;1.15;;;;;;;;;;5070257;28;20484;-79
2022/04/10 04:07:03;;;;;;;7.70;1.40;;;;;;;;;;5070176;28;20032;-79
2022/04/10 04:09:29;;;;;;;7.80;1.30;;;;;;;;;;5070150;28;20089;-77
2022/04/10 04:11:55;;;;;;;9.13;1.48;;;;;;;;;;5070425;28;20414;-74
2022/04/10 04:14:21;;;;;;;6.93;1.50;;;;;;;;;;5070002;28;20392;-74
2022/04/10 04:16:47;;;;;;;4.00;1.20;;;;;;;;;;5053472;28;20664;-75
2022/04/10 04:19:13;;;;;;;4.93;1.10;;;;;;;;;;5069273;28;20036;-74
2022/04/10 04:21:40;;;;;;;2.50;0.80;;;;;;;;;;5052675;28;20377;-74
2022/04/10 04:24:07;;;;;;;3.83;1.00;;;;;;;;;;5069984;28;20499;-74
2022/04/10 04:26:33;;;;;;;3.42;0.80;;;;;;;;;;5069147;28;20055;-75
2022/04/10 04:28:59;;;;;;;5.95;1.17;;;;;;;;;;5069524;28;20492;-75
2022/04/10 04:31:25;;;;;;;4.72;1.15;;;;;;;;;;5069286;28;20070;-75
2022/04/10 04:33:51;;;;;;;8.23;1.42;;;;;;;;;;5069206;28;20028;-74
2022/04/10 04:36:17;;;;;;;3.50;1.08;;;;;;;;;;5052249;28;20036;-74
2022/04/10 04:38:44;;;;;;;4.10;1.00;;;;;;;;;;5069345;28;20048;-74
2022/04/10 04:41:11;;;;;;;4.53;1.50;;;;;;;;;;5069306;28;20048;-74
2022/04/10 04:43:38;;;;;;;6.47;1.30;;;;;;;;;;5068907;28;20055;-74
2022/04/10 04:46:04;;;;;;;7.75;1.30;;;;;;;;;;5069733;28;20468;-73
2022/04/10 04:48:30;;;;;;;5.68;1.10;;;;;;;;;;5068837;28;20102;-75
2022/04/10 04:50:57;;;;;;;5.43;1.20;;;;;;;;;;5069392;28;20046;-75
2022/04/10 04:53:23;;;;;;;5.38;1.10;;;;;;;;;;5068680;28;20119;-75
2022/04/10 04:55:49;;;;;;;4.85;1.20;;;;;;;;;;5052712;28;20365;-75
2022/04/10 04:58:15;;;;;;;5.57;1.45;;;;;;;;;;5069002;28;20036;-73
2022/04/10 05:00:41;;;;;;;5.95;1.27;;;;;;;;;;5069260;28;20040;-78
2022/04/10 05:03:07;;;;;;;6.00;1.20;;;;;;;;;;5069753;28;20127;-77
2022/04/10 05:05:33;;;;;;;7.10;1.27;;;;;;;;;;5069423;28;20488;-79
2022/04/10 05:08:00;;;;;;;4.95;1.00;;;;;;;;;;5069732;28;20043;-80
2022/04/10 05:10:26;;;;;;;8.13;1.70;;;;;;;;;;5053127;28;20121;-79
2022/04/10 05:12:52;;;;;;;5.55;1.60;;;;;;;;;;5069519;28;20045;-79
2022/04/10 05:15:18;;;;;;;5.63;1.17;;;;;;;;;;5052406;28;20055;-79
2022/04/10 05:17:44;;;;;;;3.30;1.20;;;;;;;;;;5069156;28;20117;-79
2022/04/10 05:20:10;;;;;;;4.15;1.13;;;;;;;;;;5052795;28;20472;-77
2022/04/10 05:22:37;;;;;;;5.25;1.10;;;;;;;;;;5052251;28;20039;-79
2022/04/10 05:25:03;;;;;;;4.28;1.00;;;;;;;;;;5070615;28;20036;-76
2022/04/10 05:27:29;;;;;;;5.47;1.25;;;;;;;;;;5052047;28;20037;-78
2022/04/10 05:29:55;;;;;;;4.80;1.00;;;;;;;;;;5068873;28;20174;-74
2022/04/10 05:32:21;;;;;;;2.83;0.90;;;;;;;;;;5068383;28;20048;-75
2022/04/10 05:34:47;;;;;;;5.57;0.90;;;;;;;;;;5068562;28;20036;-74
2022/04/10 05:37:13;;;;;;;3.80;0.93;;;;;;;;;;5052204;28;20484;-75
2022/04/10 05:39:39;;;;;;;3.33;0.80;;;;;;;;;;5051501;28;20047;-75
2022/04/10 05:42:07;;;;;;;3.65;1.00;;;;;;;;;;5068406;28;20054;-75
2022/04/10 05:44:34;;;;;;;6.53;1.33;;;;;;;;;;5067512;28;20061;-75
2022/04/10 05:47:01;;;;;;;4.07;1.05;;;;;;;;;;5067995;28;20048;-74
2022/04/10 05:49:27;;;;;;;6.10;1.30;;;;;;;;;;5050999;28;20101;-73
2022/04/10 05:51:53;;;;;;;3.17;1.17;;;;;;;;;;5067975;28;20036;-76
2022/04/10 05:54:19;;;;;;;4.90;1.20;;;;;;;;;;5067274;28;20143;-75
2022/04/10 05:56:45;;;;;;;5.35;1.35;;;;;;;;;;5051756;28;20037;-75
2022/04/10 05:59:11;;;;;;;5.25;0.93;;;;;;;;;;5068367;28;20045;-75
2022/04/10 06:01:37;;;;;;;5.97;1.10;;;;;;;;;;5068093;28;20404;-75
2022/04/10 06:04:03;;;;;;;5.90;0.95;;;;;;;;;;5068091;28;20052;-75
2022/04/10 06:06:29;;;;;;;4.93;0.70;;;;;;;;;;5051401;28;20037;-76
2022/04/10 06:08:56;;;;;;;3.20;0.80;;;;;;;;;;5067944;28;20063;-74
2022/04/10 06:11:22;;;;;;;4.22;1.13;;;;;;;;;;5051078;28;20043;-77
2022/04/10 06:13:48;;;;;;;4.53;0.93;;;;;;;;;;5051616;28;20033;-75
2022/04/10 06:16:14;;;;;;;9.65;1.55;;;;;;;;;;5068088;28;20036;-76
2022/04/10 06:18:40;;;;;;;4.60;0.90;;;;;;;;;;5067826;28;20051;-76
2022/04/10 06:21:06;;;;;;;3.80;0.93;;;;;;;;;;5051738;28;20041;-75
2022/04/10 06:23:32;;;;;;;3.50;0.88;;;;;;;;;;5068847;28;20749;-75
2022/04/10 06:25:58;;;;;;;2.55;0.90;;;;;;;;;;5068076;28;20029;-76
2022/04/10 06:28:24;;;;;;;8.50;1.20;;;;;;;;;;5067763;28;20041;-75
2022/04/10 06:30:50;;;;;;;2.92;0.82;;;;;;;;;;5051296;28;20478;-76
2022/04/10 06:33:16;;;;;;;4.07;0.90;;;;;;;;;;5067689;28;20400;-74
2022/04/10 06:35:42;;;;;;;2.13;0.73;;;;;;;;;;5050894;28;20075;-76
2022/04/10 06:38:09;;;;;;;4.60;0.82;;;;;;;;;;5068998;28;20559;-76
2022/04/10 06:40:35;;;;;;;4.35;0.93;;;;;;;;;;5067639;28;20048;-73
2022/04/10 06:43:01;;;;;;;4.60;0.88;;;;;;;;;;5067502;28;20048;-76
2022/04/10 06:45:27;;;;;;;3.85;0.82;;;;;;;;;;5050649;28;20055;-76
2022/04/10 06:47:53;;;;;;;5.05;0.80;;;;;;;;;;5067949;28;20060;-75
2022/04/10 06:50:19;;;;;;;6.38;0.90;;;;;;;;;;5050928;28;20136;-75
2022/04/10 06:52:45;;;;;;;4.03;0.90;;;;;;;;;;5067751;28;20042;-81
2022/04/10 06:55:11;;;;;;;4.72;1.35;;;;;;;;;;5069630;28;20036;-80
2022/04/10 06:57:37;;;;;;;5.25;1.73;;;;;;;;;;5051462;28;20485;-81
2022/04/10 07:00:03;;;;;;;5.50;1.38;;;;;;;;;;5051300;28;20037;-78
2022/04/10 07:02:30;;;;;;;3.38;0.80;;;;;;;;;;5034278;28;20033;-80
2022/04/10 07:04:56;;;;;;;6.28;1.20;;;;;;;;;;5067861;28;20028;-79
2022/04/10 07:07:22;;;;;;;4.28;1.10;;;;;;;;;;5054361;28;20194;-79
2022/04/10 07:09:48;;;;;;;3.55;0.90;;;;;;;;;;5071433;28;20040;-79
2022/04/10 07:12:14;;;;;;;6.82;1.15;;;;;;;;;;5054699;28;20415;-78
2022/04/10 07:14:40;;;;;;;6.53;1.05;;;;;;;;;;5054370;28;20071;-79
2022/04/10 07:17:07;;;;;;;5.40;1.00;;;;;;;;;;5071511;28;20462;-80
2022/04/10 07:19:33;;;;;;;5.35;1.10;;;;;;;;;;5071361;28;20459;-79
2022/04/10 07:24:43;;;;;;;4.18;1.00;;;;;;;;;;5056125;28;20053;-75
2022/04/10 07:27:09;;;;;;;5.57;1.00;;;;;;;;;;5072283;28;20396;-75
2022/04/10 07:29:35;;;;;;;7.80;1.30;;;;;;;;;;5070442;28;20048;-75
2022/04/10 07:32:03;;;;;;;5.03;0.90;;;;;;;;;;5070966;28;20135;-76
2022/04/10 07:34:29;;;;;;;6.28;1.30;;;;;;;;;;5070504;28;20055;-73
2022/04/10 07:36:56;;;;;;;7.63;1.60;;;;;;;;;;5070688;28;20059;-73
2022/04/10 07:39:22;;;;;;;7.53;1.23;;;;;;;;;;5070347;28;20126;-73
2022/04/10 07:41:48;;;;;;;8.32;1.92;;;;;;;;;;5070565;28;20040;-72
2022/04/10 07:44:14;;;;;;;8.82;1.70;;;;;;;;;;5071000;28;20158;-75
2022/04/10 07:49:24;;;;;;;8.55;1.50;;;;;;;;;;5055924;28;20049;-75
2022/04/10 07:51:50;;;;;;;9.32;1.55;;;;;;;;;;5071552;28;20111;-76
2022/04/10 07:54:18;;;;;;;6.35;1.30;;;;;;;;;;5070296;28;20484;-75
2022/04/10 07:56:44;;;;;;;6.20;1.20;;;;;;;;;;5069930;28;20037;-77
2022/04/10 07:59:10;;;;;;;7.13;1.50;;;;;;;;;;5053887;28;20071;-76
2022/04/10 08:01:37;;;;;;;5.28;1.20;;;;;;;;;;5070173;28;20036;-76
2022/04/10 08:04:03;;;;;;;6.20;1.30;;;;;;;;;;5070308;28;20036;-75
2022/04/10 08:06:29;;;;;;;8.60;1.45;;;;;;;;;;5069779;28;20041;-74
2022/04/10 08:08:55;;;;;;;7.47;1.63;;;;;;;;;;5053247;28;20063;-74
2022/04/10 08:11:22;;;;;;;9.43;1.70;;;;;;;;;;5069807;28;20045;-75
2022/04/10 08:13:48;;;;;;;9.30;1.40;;;;;;;;;;5069893;28;20071;-75
2022/04/10 08:16:15;;;;;;;8.10;1.75;;;;;;;;;;5070863;28;20123;-75
2022/04/10 08:18:41;;;;;;;10.65;1.88;;;;;;;;;;5069921;28;20076;-75
2022/04/10 08:21:07;;;;;;;3.85;1.25;;;;;;;;;;5069576;28;20047;-76
2022/04/10 08:23:34;;;;;;;8.57;1.60;;;;;;;;;;5069537;28;20048;-76
2022/04/10 08:26:00;;;;;;;7.15;1.73;;;;;;;;;;5069825;28;20036;-76
2022/04/10 08:28:27;;;;;;;6.43;1.40;;;;;;;;;;5070787;28;20551;-74
2022/04/10 08:30:53;;;;;;;5.65;1.40;;;;;;;;;;5053198;28;20127;-74
2022/04/10 08:33:19;;;;;;;7.28;1.38;;;;;;;;;;5069831;28;20396;-74
2022/04/10 08:35:45;;;;;;;7.22;1.27;;;;;;;;;;5052755;28;20851;-72
2022/04/10 08:38:12;;;;;;;10.23;1.73;;;;;;;;;;5036819;28;20491;-74
2022/04/10 08:40:38;;;;;;;7.32;1.23;;;;;;;;;;5068900;28;20037;-74
2022/04/10 08:43:05;;;;;;;7.10;1.42;;;;;;;;;;5069167;28;20420;-73
2022/04/10 08:45:31;;;;;;;7.07;1.30;;;;;;;;;;5052278;28;20047;-77
2022/04/10 08:47:58;;;;;;;6.18;1.33;;;;;;;;;;5069187;28;20040;-78
2022/04/10 08:50:26;;;;;;;7.47;1.40;;;;;;;;;;5070340;28;20036;-79
2022/04/10 08:52:53;;;;;;;11.43;1.70;;;;;;;;;;5069141;28;20044;-75
2022/04/10 08:55:19;;;;;;;8.18;1.75;;;;;;;;;;5069130;28;20035;-75
2022/04/10 08:57:45;;;;;;;5.10;1.33;;;;;;;;;;5069132;28;20040;-78
2022/04/10 09:00:12;;;;;;;10.60;1.40;;;;;;;;;;5053183;28;20605;-73
2022/04/10 09:02:48;;;;;;;5.97;1.63;;;;;;;;;;5035803;28;20036;-75
2022/04/10 09:05:24;;;;;;;9.45;1.38;;;;;;;;;;5068828;28;20105;-73
2022/04/10 09:08:06;;;;;;;6.88;1.30;;;;;;;;;;5068342;28;20041;-73
2022/04/10 09:10:52;;;;;;;10.18;2.60;;;;;;;;;;5068646;28;20056;-75
2022/04/10 09:13:31;;;;;;;7.25;1.48;;;;;;;;;;5070193;28;20251;-73
2022/04/10 09:16:01;;;;;;;9.15;1.52;;;;;;;;;;5068025;28;20036;-74
2022/04/10 09:18:27;;;;;;;6.30;1.23;;;;;;;;;;5070131;28;20115;-73
2022/04/10 09:21:09;;;;;;;4.22;0.98;;;;;;;;;;5069896;28;20044;-74
2022/04/10 09:23:35;;;;;;;5.22;1.17;;;;;;;;;;5068314;28;20040;-73
2022/04/10 09:26:01;;;;;;;6.70;1.23;;;;;;;;;;5068332;28;20037;-75
2022/04/10 09:29:00;;;;;;;6.40;1.48;;;;;;;;;;5069042;28;20510;-75
2022/04/10 09:31:31;;;;;;;5.57;1.10;;;;;;;;;;5035891;28;20076;-74
2022/04/10 09:34:01;;;;;;;6.47;1.40;;;;;;;;;;5068751;28;20037;-73
2022/04/10 09:36:37;;;;;;;6.15;1.20;;;;;;;;;;5066267;28;20047;-73
2022/04/10 09:39:05;;;;;;;8.68;1.50;;;;;;;;;;5068515;28;20036;-75
2022/04/10 09:41:31;;;;;;;5.63;1.17;;;;;;;;;;5051186;28;20089;-74
2022/04/10 09:44:01;;;;;;;6.47;1.25;;;;;;;;;;5068328;28;20060;-75
2022/04/10 09:46:29;;;;;;;5.63;1.30;;;;;;;;;;5068167;28;20079;-74
2022/04/10 09:48:55;;;;;;;7.15;1.17;;;;;;;;;;5051565;28;20055;-75
2022/04/10 09:51:21;;;;;;;7.95;1.20;;;;;;;;;;5068183;28;20044;-75
2022/04/10 09:54:04;;;;;;;7.28;1.10;;;;;;;;;;5068518;28;20495;-76
2022/04/10 09:56:30;;;;;;;4.90;1.10;;;;;;;;;;5068157;28;20029;-73
2022/04/10 09:58:58;;;;;;;9.05;1.20;;;;;;;;;;5068243;28;20079;-74
2022/04/10 10:01:25;;;;;;;4.93;1.02;;;;;;;;;;5068053;28;20040;-74
2022/04/10 10:03:51;;;;;;;5.78;1.30;;;;;;;;;;5067878;28;20045;-75
2022/04/10 10:06:19;;;;;;;5.97;1.17;;;;;;;;;;5068090;28;20036;-76
2022/04/10 10:08:45;;;;;;;6.90;1.13;;;;;;;;;;5051554;28;20373;-73
2022/04/10 10:11:11;;;;;;;4.68;1.10;;;;;;;;;;5068106;28;20048;-75
2022/04/10 10:13:38;;;;;;;4.20;1.00;;;;;;;;;;5067620;28;20029;-77
2022/04/10 10:16:05;;;;;;;5.90;1.20;;;;;;;;;;5068205;28;20075;-74
2022/04/10 10:18:31;;;;;;;8.82;1.45;;;;;;;;;;5067776;28;20042;-74
2022/04/10 10:20:57;;;;;;;4.22;1.10;;;;;;;;;;5051071;28;20033;-75
2022/04/10 10:23:25;;;;;;;6.63;1.30;;;;;;;;;;5051417;28;20051;-74
2022/04/10 10:26:10;;;;;;;5.47;0.90;;;;;;;;;;5067827;28;20040;-75
2022/04/10 10:28:42;;;;;;;6.23;1.30;;;;;;;;;;5067402;28;20040;-74
2022/04/10 10:31:08;;;;;;;5.22;1.00;;;;;;;;;;5067468;28;20040;-76
2022/04/10 10:33:37;;;;;;;5.03;0.90;;;;;;;;;;5068006;28;20479;-75
2022/04/10 10:36:07;;;;;;;7.20;1.05;;;;;;;;;;5067862;28;20036;-76
2022/04/10 10:38:34;;;;;;;2.97;1.00;;;;;;;;;;5051174;28;20052;-77
2022/04/10 10:41:09;;;;;;;4.05;1.15;;;;;;;;;;5054312;28;20032;-75
2022/04/10 10:43:35;;;;;;;5.97;0.95;;;;;;;;;;5071855;28;20056;-75
2022/04/10 10:46:01;;;;;;;8.10;1.17;;;;;;;;;;5072069;28;20517;-76
2022/04/10 10:48:37;;;;;;;7.28;1.23;;;;;;;;;;5071511;28;20040;-77
2022/04/10 10:51:24;;;;;;;3.65;1.00;;;;;;;;;;5072215;28;20045;-77
2022/04/10 10:53:56;;;;;;;5.53;1.20;;;;;;;;;;5061653;28;20098;-76
2022/04/10 10:56:28;;;;;;;6.72;1.40;;;;;;;;;;5055428;28;20115;-76
2022/04/10 10:58:55;;;;;;;8.07;1.10;;;;;;;;;;5072325;28;20919;-75
2022/04/10 11:01:28;;;;;;;5.30;1.20;;;;;;;;;;5055444;28;20036;-75
2022/04/10 11:04:04;;;;;;;7.20;1.30;;;;;;;;;;5055090;28;20127;-76
2022/04/10 11:06:33;;;;;;;5.95;1.30;;;;;;;;;;5071329;28;20043;-73
2022/04/10 11:09:18;;;;;;;4.47;1.15;;;;;;;;;;5071073;28;20115;-73
2022/04/10 11:11:44;;;;;;;4.88;1.25;;;;;;;;;;5070863;28;20036;-74
2022/04/10 11:14:28;;;;;;;6.10;1.20;;;;;;;;;;5072525;28;20029;-73
2022/04/10 11:16:55;;;;;;;7.93;1.58;;;;;;;;;;5071173;28;20036;-74
2022/04/10 11:19:23;;;;;;;7.25;1.20;;;;;;;;;;5054487;28;20051;-74
2022/04/10 11:21:49;;;;;;;6.00;1.20;;;;;;;;;;5054319;28;20104;-75
2022/04/10 11:24:22;;;;;;;7.00;1.20;;;;;;;;;;5054213;28;20072;-76
2022/04/10 11:26:48;;;;;;;7.78;1.33;;;;;;;;;;5071433;28;20051;-77
2022/04/10 11:29:15;;;;;;;6.10;1.40;;;;;;;;;;5070967;28;20147;-76
2022/04/10 11:31:46;;;;;;;4.53;1.10;;;;;;;;;;5070881;28;20099;-77
2022/04/10 11:34:19;;;;;;;4.38;1.05;;;;;;;;;;5071188;28;20093;-75
2022/04/10 11:36:54;;;;;;;6.88;1.42;;;;;;;;;;5071088;28;20147;-76
2022/04/10 11:39:32;;;;;;;7.35;1.35;;;;;;;;;;5056807;28;20114;-76
2022/04/10 11:42:00;;;;;;;5.20;1.73;;;;;;;;;;5071020;28;20036;-76
2022/04/10 11:44:26;;;;;;;7.85;1.27;;;;;;;;;;5071377;28;20052;-76
2022/04/10 11:46:53;;;;;;;6.57;1.30;;;;;;;;;;5070754;28;20514;-75
2022/04/10 11:49:19;;;;;;;6.10;1.10;;;;;;;;;;5071139;28;20408;-78
2022/04/10 11:51:55;;;;;;;3.88;0.95;;;;;;;;;;5070283;28;20074;-76
2022/04/10 11:54:24;;;;;;;5.75;1.10;;;;;;;;;;5069130;28;20032;-74
2022/04/10 11:56:51;;;;;;;5.07;1.00;;;;;;;;;;5070232;28;20036;-75
2022/04/10 11:59:18;;;;;;;6.43;1.42;;;;;;;;;;5070573;28;20162;-73
2022/04/10 12:01:44;;;;;;;10.52;1.20;;;;;;;;;;5070003;28;20403;-73
2022/04/10 12:04:10;;;;;;;5.20;1.73;;;;;;;;;;5070006;28;20051;-74
2022/04/10 12:06:36;;;;;;;5.47;1.15;;;;;;;;;;5069973;28;20041;-75
2022/04/10 12:09:02;;;;;;;5.63;1.25;;;;;;;;;;5053345;28;20040;-74
2022/04/10 12:11:37;;;;;;;4.35;1.10;;;;;;;;;;5070185;28;20032;-74
2022/04/10 12:14:14;;;;;;;8.80;1.30;;;;;;;;;;5068013;28;20066;-74
2022/04/10 12:16:43;;;;;;;6.78;1.27;;;;;;;;;;5053013;28;20093;-75
2022/04/10 12:19:09;;;;;;;5.60;1.08;;;;;;;;;;5069970;28;20562;-76
2022/04/10 12:21:36;;;;;;;3.90;0.90;;;;;;;;;;5071192;28;20468;-75
2022/04/10 12:24:03;;;;;;;4.90;1.10;;;;;;;;;;5071030;28;20040;-77
2022/04/10 12:26:30;;;;;;;5.60;0.93;;;;;;;;;;5067898;28;20036;-78
2022/04/10 12:28:56;;;;;;;6.53;1.45;;;;;;;;;;5070049;28;20553;-75
2022/04/10 12:31:22;;;;;;;5.07;1.00;;;;;;;;;;5036953;28;20477;-75
2022/04/10 12:33:48;;;;;;;4.53;1.23;;;;;;;;;;5069917;28;20123;-77
2022/04/10 12:36:18;;;;;;;4.40;0.85;;;;;;;;;;5070268;28;20041;-76
2022/04/10 12:38:44;;;;;;;5.57;1.08;;;;;;;;;;5067788;28;20037;-76
2022/04/10 12:41:11;;;;;;;3.88;1.00;;;;;;;;;;5070250;28;20098;-75
2022/04/10 12:43:37;;;;;;;5.40;0.95;;;;;;;;;;5069832;28;20053;-76
2022/04/10 12:46:12;;;;;;;4.57;1.00;;;;;;;;;;5070036;28;20110;-75
2022/04/10 12:48:39;;;;;;;5.70;1.05;;;;;;;;;;5069952;28;20044;-75
2022/04/10 12:51:12;;;;;;;5.15;1.02;;;;;;;;;;5069642;28;20090;-76
2022/04/10 12:53:39;;;;;;;2.55;1.00;;;;;;;;;;5069456;28;20549;-75
2022/04/10 12:56:18;;;;;;;4.68;0.95;;;;;;;;;;5069471;28;20049;-75
2022/04/10 12:58:51;;;;;;;3.45;0.90;;;;;;;;;;5069438;28;20051;-75
2022/04/10 13:01:26;;;;;;;4.47;0.85;;;;;;;;;;5069835;28;20105;-77
2022/04/10 13:03:52;;;;;;;3.45;0.82;;;;;;;;;;5069914;28;20377;-76
2022/04/10 13:06:19;;;;;;;4.75;1.00;;;;;;;;;;5054115;28;20387;-78
2022/04/10 13:08:47;;;;;;;4.78;1.10;;;;;;;;;;5070572;28;20068;-78
2022/04/10 13:11:13;;;;;;;3.92;1.20;;;;;;;;;;5070187;28;20523;-78
2022/04/10 13:13:55;;;;;;;3.63;0.77;;;;;;;;;;5069555;28;20170;-77
2022/04/10 13:16:28;;;;;;;4.35;0.93;;;;;;;;;;5070209;28;20040;-78
2022/04/10 13:18:54;;;;;;;2.60;0.80;;;;;;;;;;5052677;28;20048;-78
2022/04/10 13:21:22;;;;;;;3.83;0.90;;;;;;;;;;5052424;28;20093;-78
2022/04/10 13:23:48;;;;;;;3.83;0.85;;;;;;;;;;5069076;28;20051;-76
2022/04/10 13:26:24;;;;;;;4.25;1.38;;;;;;;;;;5069039;28;20110;-75
2022/04/10 13:28:50;;;;;;;3.90;0.98;;;;;;;;;;5067622;28;20043;-75
2022/04/10 13:31:17;;;;;;;7.10;1.25;;;;;;;;;;5068986;28;20118;-75
2022/04/10 13:33:43;;;;;;;4.03;0.80;;;;;;;;;;5070089;28;20044;-75
2022/04/10 13:36:10;;;;;;;4.15;0.98;;;;;;;;;;5069294;28;20040;-78
2022/04/10 13:38:36;;;;;;;5.05;1.10;;;;;;;;;;5069990;28;20048;-77
2022/04/10 13:41:03;;;;;;;5.53;0.88;;;;;;;;;;5052698;28;20047;-78
2022/04/10 13:43:29;;;;;;;4.38;0.77;;;;;;;;;;5070360;28;20044;-76
2022/04/10 13:45:55;;;;;;;5.05;0.90;;;;;;;;;;5052849;28;20072;-77
2022/04/10 13:48:21;;;;;;;3.92;0.90;;;;;;;;;;5069419;28;20422;-78
2022/04/10 13:50:48;;;;;;;5.85;1.00;;;;;;;;;;5052410;28;20082;-78
2022/04/10 13:53:14;;;;;;;5.28;1.20;;;;;;;;;;5069409;28;20040;-78
2022/04/10 13:55:40;;;;;;;6.13;0.80;;;;;;;;;;5069053;28;20045;-78
2022/04/10 13:58:06;;;;;;;2.47;0.68;;;;;;;;;;5069059;28;20040;-76
2022/04/10 14:00:33;;;;;;;4.72;0.70;;;;;;;;;;5052503;28;20491;-78
2022/04/10 14:02:59;;;;;;;5.63;0.90;;;;;;;;;;5052401;28;20115;-78
2022/04/10 14:05:25;;;;;;;6.00;1.00;;;;;;;;;;5064201;28;20041;-77
2022/04/10 14:07:51;;;;;;;4.43;0.95;;;;;;;;;;5069216;28;20093;-78
2022/04/10 14:10:17;;;;;;;4.72;0.93;;;;;;;;;;5068738;28;20043;-75
2022/04/10 14:12:43;;;;;;;4.28;1.02;;;;;;;;;;5069107;28;20040;-75
2022/04/10 14:15:10;;;;;;;4.55;0.90;;;;;;;;;;5070526;28;20154;-76
2022/04/10 14:17:36;;;;;;;5.30;0.77;;;;;;;;;;5055689;28;20036;-77
2022/04/10 14:20:03;;;;;;;4.55;1.02;;;;;;;;;;5074188;28;20044;-78
2022/04/10 14:22:29;;;;;;;5.13;0.90;;;;;;;;;;5072979;28;20044;-75
2022/04/10 14:24:55;;;;;;;5.85;0.88;;;;;;;;;;5072496;28;20819;-76
2022/04/10 14:27:21;;;;;;;4.32;0.85;;;;;;;;;;5071943;28;20041;-75
2022/04/10 14:29:48;;;;;;;5.22;1.00;;;;;;;;;;5071584;28;20522;-76
2022/04/10 14:32:14;;;;;;;4.55;0.90;;;;;;;;;;5072522;28;20040;-75
2022/04/10 14:34:40;;;;;;;6.70;1.05;;;;;;;;;;5071783;28;20396;-74
2022/04/10 14:37:06;;;;;;;3.95;1.10;;;;;;;;;;5055183;28;20041;-75
2022/04/10 14:39:32;;;;;;;7.15;0.90;;;;;;;;;;5071393;28;20087;-75
2022/04/10 14:41:59;;;;;;;4.53;1.02;;;;;;;;;;5055244;28;20037;-74
2022/04/10 14:44:26;;;;;;;3.72;0.73;;;;;;;;;;5071187;28;20149;-75
2022/04/10 14:46:52;;;;;;;5.82;0.80;;;;;;;;;;5071376;28;20079;-77